Time;durP1;ratioP1;P1;durP2;ratioP2;P2;SDS_P1;SDS_P2;PMS_P1;PMS_P2;Temp;Humidity;BMP_temperature;BMP_pressure;BME280_temperature;BME280_humidity;BME280_pressure;Samples;Min_cycle;Max_cycle;Signal;HPM_P1;HPM_P2
2021/10/20 00:00:30;;;;;;;6.50;3.80;;;;;;;10.69;64.89;97135.67;115604;1199;29716;-90
2021/10/20 00:03:08;;;;;;;6.80;3.20;;;;;;;10.68;64.93;97119.16;115333;1199;46095;-90
2021/10/20 00:05:36;;;;;;;6.40;3.80;;;;;;;10.65;64.95;97109.10;115455;1199;28476;-91
2021/10/20 00:08:07;;;;;;;7.10;3.70;;;;;;;10.63;65.07;97131.38;115200;1200;29115;-91
2021/10/20 00:10:36;;;;;;;6.20;3.20;;;;;;;10.60;65.02;97117.11;115423;1199;29009;-90
2021/10/20 00:13:05;;;;;;;6.60;3.70;;;;;;;10.59;65.07;97121.47;115603;1198;27953;-90
2021/10/20 00:15:33;;;;;;;6.30;3.50;;;;;;;10.57;65.19;97113.94;115279;1199;27193;-90
2021/10/20 00:18:01;;;;;;;6.50;4.00;;;;;;;10.55;65.17;97112.23;115626;1199;27137;-91
2021/10/20 00:20:30;;;;;;;6.30;4.00;;;;;;;10.53;65.30;97103.10;115580;1198;26770;-89
2021/10/20 00:22:59;;;;;;;7.00;3.70;;;;;;;10.50;65.33;97113.88;115568;1198;27781;-90
2021/10/20 00:25:27;;;;;;;6.30;3.40;;;;;;;10.47;65.41;97093.36;115560;1199;28348;-91
2021/10/20 00:27:55;;;;;;;5.60;3.30;;;;;;;10.45;65.47;97110.81;115484;1198;27015;-92
2021/10/20 00:30:24;;;;;;;4.70;3.30;;;;;;;10.42;65.47;97099.63;115446;1193;27759;-90
2021/10/20 00:32:52;;;;;;;8.80;3.90;;;;;;;10.42;65.63;97100.99;115350;1199;29176;-91
2021/10/20 00:35:20;;;;;;;8.60;3.90;;;;;;;10.40;65.65;97091.16;115426;1198;30166;-91
2021/10/20 00:37:48;;;;;;;5.30;3.30;;;;;;;10.38;65.74;97093.55;115518;1193;29187;-91
2021/10/20 00:40:16;;;;;;;6.40;3.80;;;;;;;10.37;65.79;97092.14;115533;1199;25510;-90
2021/10/20 00:42:45;;;;;;;7.90;3.80;;;;;;;10.35;65.96;97089.39;115335;1199;28219;-91
2021/10/20 00:45:14;;;;;;;6.40;3.60;;;;;;;10.34;65.95;97081.48;115534;1192;28434;-91
2021/10/20 00:47:42;;;;;;;6.90;3.80;;;;;;;10.33;66.09;97073.32;115475;1199;28525;-90
2021/10/20 00:50:13;;;;;;;5.50;3.30;;;;;;;10.31;66.05;97067.07;115358;1199;28095;-90
2021/10/20 00:52:42;;;;;;;6.50;3.10;;;;;;;10.31;66.05;97068.45;115411;1198;27944;-89
2021/10/20 00:55:12;;;;;;;4.50;3.30;;;;;;;10.35;66.08;97066.21;115586;1199;45271;-91
2021/10/20 00:57:42;;;;;;;4.70;3.20;;;;;;;10.39;66.02;97056.56;115516;1198;41625;-90
2021/10/20 01:00:13;;;;;;;5.00;3.20;;;;;;;10.43;65.93;97064.11;115570;1198;27688;-90
2021/10/20 01:02:42;;;;;;;5.10;3.30;;;;;;;10.46;65.90;97045.66;115539;1198;38804;-90
2021/10/20 01:05:11;;;;;;;4.60;3.20;;;;;;;10.48;65.84;97057.26;115438;1199;27222;-91
2021/10/20 01:07:40;;;;;;;6.00;3.60;;;;;;;10.50;65.69;97057.30;115507;1198;27387;-92
2021/10/20 01:10:10;;;;;;;6.60;3.50;;;;;;;10.51;65.71;97059.16;115566;1197;27848;-89
2021/10/20 01:12:38;;;;;;;;;;;;;;;10.51;65.71;97056.55;115490;1199;28435;-90
2021/10/20 01:15:09;;;;;;;6.00;3.40;;;;;;;10.52;65.60;97049.08;115486;1198;28688;-91
2021/10/20 01:17:37;;;;;;;8.10;3.40;;;;;;;10.53;65.72;97042.66;115632;1199;29867;-91
2021/10/20 01:20:07;;;;;;;7.70;4.00;;;;;;;10.53;65.74;97039.42;115576;1198;44947;-91
2021/10/20 01:22:35;;;;;;;;;;;;;;;10.55;65.59;97040.86;115634;1198;28841;-92
2021/10/20 01:25:04;;;;;;;7.00;3.80;;;;;;;10.56;65.64;97043.52;115644;1199;28408;-91
2021/10/20 01:27:33;;;;;;;4.30;3.00;;;;;;;10.59;65.44;97050.73;115624;1198;26988;-90
2021/10/20 01:30:01;;;;;;;4.90;3.30;;;;;;;10.65;65.33;97042.77;115509;1198;36245;-91
2021/10/20 01:32:29;;;;;;;5.00;2.80;;;;;;;10.67;65.30;97034.95;115504;1199;29509;-91
2021/10/20 01:34:57;;;;;;;4.80;3.30;;;;;;;10.67;65.21;97027.47;115413;1199;30455;-92
2021/10/20 01:37:27;;;;;;;8.10;3.60;;;;;;;10.69;65.23;97020.11;115431;1199;27555;-91
2021/10/20 01:39:57;;;;;;;5.00;2.50;;;;;;;10.73;64.92;97007.80;115416;1199;27736;-91
2021/10/20 01:42:25;;;;;;;4.30;2.60;;;;;;;10.83;64.41;97003.05;115511;1199;27740;-92
2021/10/20 01:44:53;;;;;;;6.00;3.20;;;;;;;10.92;63.90;96991.89;115453;1199;28338;-91
2021/10/20 01:47:21;;;;;;;4.70;2.90;;;;;;;10.98;63.55;96996.17;115565;1192;27494;-92
2021/10/20 01:49:50;;;;;;;4.60;2.60;;;;;;;11.01;63.34;96993.35;115508;1199;30818;-91
2021/10/20 01:52:19;;;;;;;7.00;3.20;;;;;;;11.00;63.34;96992.40;115360;1193;31540;-91
2021/10/20 01:54:47;;;;;;;6.20;3.00;;;;;;;10.94;63.60;97014.48;115560;1198;26568;-91
2021/10/20 01:57:15;;;;;;;4.10;2.80;;;;;;;10.88;63.76;97007.61;115528;1198;28039;-91
2021/10/20 01:59:44;;;;;;;6.30;3.80;;;;;;;10.84;63.86;97017.80;115409;1199;30599;-91
2021/10/20 02:02:19;;;;;;;5.40;3.70;;;;;;;10.79;64.05;97038.02;115488;1199;26879;-90
2021/10/20 02:04:48;;;;;;;7.70;3.70;;;;;;;10.76;64.24;97024.29;115201;1199;27250;-90
2021/10/20 02:07:16;;;;;;;3.80;2.80;;;;;;;10.74;64.25;97017.19;115440;1199;30621;-91
2021/10/20 02:09:45;;;;;;;7.00;3.50;;;;;;;10.78;64.23;97030.38;115373;1193;26627;-91
2021/10/20 02:12:13;;;;;;;7.10;3.40;;;;;;;10.77;64.40;97029.43;115416;1193;27659;-91
2021/10/20 02:14:41;;;;;;;5.80;3.80;;;;;;;10.72;64.44;97030.57;115191;1199;29486;-89
2021/10/20 02:17:09;;;;;;;3.90;3.10;;;;;;;10.68;64.58;97034.95;115381;1199;27429;-90
2021/10/20 02:19:37;;;;;;;4.50;3.20;;;;;;;10.69;64.73;97039.56;115617;1199;26817;-92
2021/10/20 02:22:06;;;;;;;3.30;2.60;;;;;;;10.72;64.76;97031.73;115651;1198;26328;-90
2021/10/20 02:24:35;;;;;;;4.80;3.20;;;;;;;10.70;64.82;97026.84;115621;1192;26828;-91
2021/10/20 02:27:03;;;;;;;6.00;3.50;;;;;;;10.70;64.85;97021.96;115597;1192;27863;-92
2021/10/20 02:29:31;;;;;;;4.20;2.80;;;;;;;10.67;64.88;97019.05;115545;1198;26679;-91
2021/10/20 02:32:00;;;;;;;5.10;3.30;;;;;;;10.65;64.96;97016.23;115521;1194;29037;-92
2021/10/20 02:34:28;;;;;;;4.80;3.00;;;;;;;10.63;65.04;97014.55;115412;1199;27265;-91
2021/10/20 02:36:57;;;;;;;6.40;3.40;;;;;;;10.62;65.10;97000.35;115383;1199;26301;-92
2021/10/20 02:39:25;;;;;;;5.70;3.50;;;;;;;10.61;65.16;96991.33;115415;1199;32641;-91
2021/10/20 02:41:53;;;;;;;4.30;2.80;;;;;;;10.59;65.19;96998.56;115411;1198;28423;-91
2021/10/20 02:44:22;;;;;;;5.10;3.20;;;;;;;10.62;65.25;96999.98;115257;1199;30877;-91
2021/10/20 02:46:50;;;;;;;6.30;3.30;;;;;;;10.67;65.13;97001.39;115235;1199;28028;-91
2021/10/20 02:49:18;;;;;;;6.20;3.70;;;;;;;10.70;65.20;96999.17;115374;1199;31969;-92
2021/10/20 02:51:46;;;;;;;6.50;3.20;;;;;;;10.70;65.12;96990.69;115365;1199;32762;-91
2021/10/20 02:54:15;;;;;;;4.70;3.60;;;;;;;10.69;65.19;96988.02;115403;1199;30861;-91
2021/10/20 02:56:43;;;;;;;5.70;3.40;;;;;;;10.68;65.24;96987.06;115428;1198;37070;-91
2021/10/20 02:59:11;;;;;;;4.80;2.90;;;;;;;10.71;65.24;96993.18;115452;1198;40261;-90
2021/10/20 03:01:39;;;;;;;4.60;2.80;;;;;;;10.72;65.25;96980.83;115547;1198;27951;-91
2021/10/20 03:04:07;;;;;;;4.90;2.70;;;;;;;10.73;65.35;96974.72;115539;1198;27746;-91
2021/10/20 03:06:36;;;;;;;3.50;2.40;;;;;;;10.80;65.30;96975.48;115574;1199;27967;-90
2021/10/20 03:09:04;;;;;;;4.20;2.80;;;;;;;10.87;65.21;96977.69;115598;1198;25303;-91
2021/10/20 03:11:32;;;;;;;6.20;2.70;;;;;;;10.90;65.09;96975.61;115491;1198;27846;-91
2021/10/20 03:14:00;;;;;;;5.40;3.20;;;;;;;10.89;65.05;96975.13;115462;1192;25578;-91
2021/10/20 03:16:28;;;;;;;5.60;3.20;;;;;;;10.90;65.16;96966.96;115505;1198;31062;-89
2021/10/20 03:18:56;;;;;;;5.30;3.30;;;;;;;10.94;65.20;96962.75;115545;1192;27325;-91
2021/10/20 03:21:24;;;;;;;4.80;3.00;;;;;;;10.92;65.20;96973.31;115252;1199;32626;-91
2021/10/20 03:23:53;;;;;;;5.50;3.10;;;;;;;10.89;65.36;96967.18;115278;1199;27122;-91
2021/10/20 03:26:21;;;;;;;4.40;3.40;;;;;;;10.87;65.54;96960.46;115401;1199;27087;-91
2021/10/20 03:28:49;;;;;;;5.70;3.10;;;;;;;10.87;65.67;96957.21;115361;1198;30886;-91
2021/10/20 03:31:17;;;;;;;3.50;2.60;;;;;;;10.87;65.71;96952.08;115490;1199;28896;-90
2021/10/20 03:33:46;;;;;;;5.00;3.00;;;;;;;10.88;65.79;96956.15;115571;1196;26994;-91
2021/10/20 03:36:16;;;;;;;5.70;3.40;;;;;;;10.88;66.05;96959.60;115422;1198;27311;-90
2021/10/20 03:38:44;;;;;;;6.00;3.20;;;;;;;10.94;66.22;96960.05;115240;1199;27576;-90
2021/10/20 03:41:12;;;;;;;6.10;3.60;;;;;;;11.08;66.15;96956.38;115478;1198;29996;-90
2021/10/20 03:43:41;;;;;;;4.70;3.30;;;;;;;11.16;65.94;96960.12;115526;1199;27642;-90
2021/10/20 03:46:09;;;;;;;5.00;3.20;;;;;;;11.14;65.83;96954.30;115474;1198;30765;-89
2021/10/20 03:48:37;;;;;;;5.10;3.00;;;;;;;11.16;65.92;96952.20;115563;1199;33576;-91
2021/10/20 03:51:06;;;;;;;6.80;3.10;;;;;;;11.19;65.79;96950.07;115504;1199;27947;-91
2021/10/20 03:53:34;;;;;;;5.80;3.30;;;;;;;11.22;65.79;96942.98;115576;1198;33770;-91
2021/10/20 03:56:02;;;;;;;5.00;3.00;;;;;;;11.24;65.76;96932.19;115526;1199;27069;-90
2021/10/20 03:58:31;;;;;;;5.20;3.80;;;;;;;11.24;65.79;96926.98;115534;1199;27857;-90
2021/10/20 04:00:59;;;;;;;4.90;3.40;;;;;;;11.34;65.68;96934.64;115392;1199;27692;-90
2021/10/20 04:03:27;;;;;;;5.30;3.40;;;;;;;11.42;65.58;96921.85;115393;1199;29136;-91
2021/10/20 04:05:55;;;;;;;4.30;2.90;;;;;;;11.49;65.38;96926.58;115418;1199;31895;-89
2021/10/20 04:08:23;;;;;;;4.20;3.60;;;;;;;11.57;65.17;96911.50;115474;1198;28101;-91
2021/10/20 04:10:51;;;;;;;4.30;3.10;;;;;;;11.61;65.01;96917.52;115430;1199;26565;-91
2021/10/20 04:13:19;;;;;;;3.70;2.90;;;;;;;11.65;64.71;96928.06;115437;1192;26929;-90
2021/10/20 04:15:48;;;;;;;5.30;3.40;;;;;;;11.73;64.42;96931.84;115458;1192;35512;-90
2021/10/20 04:18:16;;;;;;;4.00;2.90;;;;;;;11.79;64.19;96928.77;115514;1197;27830;-90
2021/10/20 04:20:44;;;;;;;7.60;3.50;;;;;;;11.83;63.65;96888.38;115571;1198;26077;-92
2021/10/20 04:23:12;;;;;;;6.10;3.20;;;;;;;11.92;63.57;96913.59;115465;1192;26499;-90
2021/10/20 04:25:40;;;;;;;4.20;3.00;;;;;;;11.95;63.34;96924.57;115437;1192;70422;-91
2021/10/20 04:28:08;;;;;;;4.00;2.90;;;;;;;12.01;63.07;96924.31;115618;1199;26578;-90
2021/10/20 04:30:36;;;;;;;5.90;2.80;;;;;;;12.06;62.78;96901.77;115562;1199;26584;-92
2021/10/20 04:33:05;;;;;;;7.40;3.80;;;;;;;12.10;62.65;96895.84;115569;1198;26021;-90
2021/10/20 04:35:33;;;;;;;6.90;3.60;;;;;;;12.09;62.48;96894.46;115475;1199;25654;-92
2021/10/20 04:38:02;;;;;;;4.30;3.20;;;;;;;12.12;62.29;96886.00;115565;1198;30240;-90
2021/10/20 04:40:30;;;;;;;4.30;2.80;;;;;;;12.14;62.19;96895.61;115507;1199;44308;-91
2021/10/20 04:42:58;;;;;;;6.50;3.60;;;;;;;12.14;62.10;96900.27;115390;1199;30989;-90
2021/10/20 04:45:27;;;;;;;5.40;3.30;;;;;;;12.15;62.05;96902.66;115485;1198;27546;-91
2021/10/20 04:47:55;;;;;;;5.60;3.30;;;;;;;12.18;62.10;96900.91;115437;1198;28312;-91
2021/10/20 04:50:23;;;;;;;4.90;3.30;;;;;;;12.22;61.88;96900.20;115404;1199;29526;-91
2021/10/20 04:52:51;;;;;;;5.80;3.20;;;;;;;12.27;61.82;96882.34;115437;1199;28540;-90
2021/10/20 04:55:19;;;;;;;5.70;3.30;;;;;;;12.28;61.74;96879.94;115522;1198;28182;-90
2021/10/20 04:57:51;;;;;;;4.20;3.00;;;;;;;12.28;61.47;96878.67;115574;1199;27175;-91
2021/10/20 05:00:21;;;;;;;4.60;3.10;;;;;;;12.29;61.52;96887.15;115534;1198;29359;-91
2021/10/20 05:02:49;;;;;;;7.40;3.90;;;;;;;12.32;61.22;96869.63;115436;1199;30393;-90
2021/10/20 05:05:18;;;;;;;6.60;3.20;;;;;;;12.34;61.18;96877.26;115410;1192;30111;-91
2021/10/20 05:07:51;;;;;;;4.00;3.10;;;;;;;12.34;61.17;96880.49;115479;1199;28284;-91
2021/10/20 05:10:21;;;;;;;5.50;3.30;;;;;;;12.34;61.12;96876.19;115430;1198;33637;-90
2021/10/20 05:12:49;;;;;;;4.70;3.30;;;;;;;12.34;61.17;96869.42;115306;1199;29996;-91
2021/10/20 05:15:18;;;;;;;6.50;3.30;;;;;;;12.36;61.11;96869.46;115221;1200;33216;-90
2021/10/20 05:17:47;;;;;;;8.70;3.20;;;;;;;12.38;60.97;96863.44;115420;1199;28997;-92
2021/10/20 05:20:17;;;;;;;4.20;3.20;;;;;;;12.41;60.82;96859.75;115378;1199;29009;-92
2021/10/20 05:22:45;;;;;;;4.40;2.50;;;;;;;12.42;61.00;96859.15;115527;1199;28083;-91
2021/10/20 05:25:15;;;;;;;4.90;2.70;;;;;;;12.43;60.99;96869.67;115327;1193;29566;-92
2021/10/20 05:27:43;;;;;;;7.30;2.90;;;;;;;12.45;61.07;96870.23;115465;1199;30248;-91
2021/10/20 05:30:12;;;;;;;4.50;2.40;;;;;;;12.46;60.98;96872.48;115306;1199;35211;-90
2021/10/20 05:32:41;;;;;;;5.60;2.80;;;;;;;12.49;60.90;96860.77;115439;1198;29002;-91
2021/10/20 05:35:11;;;;;;;3.90;2.40;;;;;;;12.51;60.94;96855.95;115472;1192;35907;-91
2021/10/20 05:37:39;;;;;;;3.40;2.50;;;;;;;12.56;60.68;96853.14;115481;1199;31673;-90
2021/10/20 05:40:09;;;;;;;5.40;2.90;;;;;;;12.59;60.80;96849.05;115608;1192;28814;-91
2021/10/20 05:42:38;;;;;;;3.60;2.60;;;;;;;12.68;60.53;96853.31;115514;1199;28320;-91
2021/10/20 05:45:07;;;;;;;4.20;2.60;;;;;;;12.82;60.00;96852.06;115464;1192;25514;-91
2021/10/20 05:47:37;;;;;;;4.80;2.50;;;;;;;12.92;59.99;96850.44;115325;1200;26560;-92
2021/10/20 05:50:07;;;;;;;5.10;2.90;;;;;;;12.96;59.35;96836.65;115482;1194;26988;-91
2021/10/20 05:52:36;;;;;;;3.40;2.40;;;;;;;13.08;59.35;96835.00;115440;1194;30247;-90
2021/10/20 05:55:05;;;;;;;5.10;2.80;;;;;;;13.12;59.31;96833.35;115531;1199;28589;-92
2021/10/20 05:57:36;;;;;;;3.60;2.60;;;;;;;13.15;59.29;96837.19;115437;1198;27316;-91
2021/10/20 06:00:07;;;;;;;4.70;2.60;;;;;;;13.22;59.31;96842.05;115256;1200;28493;-90
2021/10/20 06:02:36;;;;;;;5.10;3.20;;;;;;;13.68;58.81;96845.39;115422;1199;26149;-90
2021/10/20 06:05:06;;;;;;;3.30;2.90;;;;;;;14.14;58.03;96839.90;115490;1199;27649;-91
2021/10/20 06:07:39;;;;;;;3.30;2.40;;;;;;;14.88;56.84;96847.72;115470;1198;26942;-91
2021/10/20 06:10:09;;;;;;;3.40;2.40;;;;;;;15.52;54.98;96840.82;115497;1199;27425;-90
2021/10/20 06:12:39;;;;;;;4.20;2.70;;;;;;;15.52;54.75;96854.98;115444;1193;26860;-91
2021/10/20 06:15:08;;;;;;;5.00;2.80;;;;;;;15.12;54.91;96854.77;115498;1199;28764;-91
2021/10/20 06:17:37;;;;;;;4.70;2.50;;;;;;;14.80;55.32;96863.67;115542;1192;26528;-90
2021/10/20 06:20:08;;;;;;;3.50;2.50;;;;;;;14.56;55.30;96857.25;115538;1198;27805;-91
2021/10/20 06:22:37;;;;;;;;;;;;;;;14.38;55.56;96859.36;115546;1199;37159;-91
2021/10/20 06:25:07;;;;;;;3.50;2.50;;;;;;;14.26;55.78;96857.08;115445;1192;25867;-89
2021/10/20 06:27:36;;;;;;;4.20;2.40;;;;;;;14.15;56.18;96861.36;115441;1199;28365;-89
2021/10/20 06:30:05;;;;;;;3.50;2.60;;;;;;;14.11;56.67;96847.70;115455;1199;27030;-91
2021/10/20 06:32:33;;;;;;;5.10;3.10;;;;;;;14.11;57.11;96858.08;115429;1198;26633;-91
2021/10/20 06:35:02;;;;;;;5.20;3.00;;;;;;;14.14;57.25;96853.06;115406;1199;25568;-92
2021/10/20 06:37:30;;;;;;;4.60;2.70;;;;;;;14.18;57.24;96854.58;115357;1199;27002;-91
2021/10/20 06:40:00;;;;;;;3.90;3.00;;;;;;;14.21;57.01;96856.45;115359;1199;27299;-91
2021/10/20 06:42:30;;;;;;;3.40;2.20;;;;;;;14.49;56.98;96840.21;115367;1199;29767;-90
2021/10/20 06:44:58;;;;;;;3.30;2.70;;;;;;;15.05;56.23;96848.11;115386;1199;25303;-90
2021/10/20 06:47:26;;;;;;;4.80;2.50;;;;;;;15.68;55.15;96845.83;115347;1199;27767;-90
2021/10/20 06:49:55;;;;;;;5.20;3.10;;;;;;;15.96;53.81;96836.90;115396;1199;24869;-89
2021/10/20 06:52:23;;;;;;;5.30;3.10;;;;;;;16.17;52.99;96836.41;115381;1198;24899;-91
2021/10/20 06:54:51;;;;;;;4.30;2.70;;;;;;;16.27;52.82;96835.54;115392;1199;25957;-91
2021/10/20 06:57:19;;;;;;;5.30;3.30;;;;;;;16.40;52.59;96848.05;115356;1199;28326;-90
2021/10/20 06:59:47;;;;;;;4.70;3.30;;;;;;;16.63;52.78;96855.50;115388;1198;30030;-90
2021/10/20 07:02:15;;;;;;;5.20;3.10;;;;;;;16.88;52.25;96854.16;115452;1198;25879;-89
2021/10/20 07:04:43;;;;;;;4.80;2.50;;;;;;;17.00;51.87;96848.73;115495;1198;25694;-90
2021/10/20 07:07:13;;;;;;;4.40;3.20;;;;;;;17.05;51.07;96838.67;115443;1192;24471;-92
2021/10/20 07:09:41;;;;;;;7.00;3.00;;;;;;;16.98;51.17;96855.79;115466;1199;25588;-90
2021/10/20 07:12:09;;;;;;;4.60;2.60;;;;;;;16.96;51.33;96852.00;115508;1198;25767;-89
2021/10/20 07:14:37;;;;;;;5.30;3.10;;;;;;;17.01;51.35;96857.68;115525;1198;29027;-87
2021/10/20 07:17:08;;;;;;;3.80;2.90;;;;;;;16.94;51.15;96850.47;115274;1199;30636;-90
2021/10/20 07:19:38;;;;;;;5.00;3.20;;;;;;;16.82;51.00;96862.32;115402;1199;27633;-90
2021/10/20 07:22:08;;;;;;;4.10;2.70;;;;;;;16.65;51.06;96846.26;115428;1193;28903;-90
2021/10/20 07:24:36;;;;;;;4.90;2.70;;;;;;;16.46;51.27;96841.61;115493;1199;28881;-89
2021/10/20 07:27:04;;;;;;;4.50;3.10;;;;;;;16.30;51.74;96845.27;115533;1198;28541;-87
2021/10/20 07:29:33;;;;;;;3.80;2.80;;;;;;;16.29;52.33;96861.98;115467;1199;26619;-88
2021/10/20 07:32:03;;;;;;;6.00;3.10;;;;;;;16.37;52.59;96853.96;115488;1199;45314;-91
2021/10/20 07:34:31;;;;;;;4.10;2.90;;;;;;;16.45;52.51;96867.39;115501;1198;27097;-90
2021/10/20 07:36:59;;;;;;;5.60;2.80;;;;;;;16.47;52.32;96855.19;115350;1199;28735;-89
2021/10/20 07:39:27;;;;;;;3.40;2.90;;;;;;;16.37;52.46;96869.23;115393;1199;28307;-90
2021/10/20 07:41:55;;;;;;;3.90;2.70;;;;;;;16.39;52.73;96873.77;115399;1199;26661;-90
2021/10/20 07:44:23;;;;;;;4.30;3.20;;;;;;;16.40;53.01;96873.45;115072;1200;27737;-90
2021/10/20 07:46:51;;;;;;;4.30;3.10;;;;;;;16.28;53.02;96857.83;115379;1193;25143;-90
2021/10/20 07:49:19;;;;;;;4.20;2.40;;;;;;;16.21;53.37;96865.58;115461;1192;24749;-90
2021/10/20 07:51:49;;;;;;;7.60;3.00;;;;;;;16.23;53.71;96863.70;115467;1198;27993;-90
2021/10/20 07:54:18;;;;;;;5.90;3.50;;;;;;;16.28;53.95;96859.80;115351;1199;40215;-90
2021/10/20 07:56:46;;;;;;;4.70;2.60;;;;;;;16.40;54.09;96859.23;115422;1192;25965;-90
2021/10/20 07:59:14;;;;;;;3.60;2.70;;;;;;;16.59;54.06;96864.17;115447;1198;26092;-89
2021/10/20 08:01:43;;;;;;;3.10;2.60;;;;;;;16.76;54.00;96854.05;115428;1198;27949;-90
2021/10/20 08:04:11;;;;;;;2.80;2.10;;;;;;;16.82;53.66;96853.44;115446;1199;27136;-89
2021/10/20 08:06:40;;;;;;;4.40;2.70;;;;;;;16.77;53.77;96852.83;115426;1199;26848;-90
2021/10/20 08:09:08;;;;;;;4.60;2.60;;;;;;;16.75;53.88;96845.98;115491;1199;26573;-89
2021/10/20 08:11:37;;;;;;;3.30;2.30;;;;;;;16.72;54.31;96852.80;115362;1184;27196;-89
2021/10/20 08:14:05;;;;;;;5.40;2.90;;;;;;;16.69;54.20;96860.16;115545;1198;25708;-89
2021/10/20 08:16:33;;;;;;;5.00;2.50;;;;;;;16.70;54.54;96859.77;115404;1199;36592;-89
2021/10/20 08:19:01;;;;;;;4.00;2.70;;;;;;;16.78;54.82;96843.37;115343;1199;27207;-89
2021/10/20 08:21:29;;;;;;;5.60;2.40;;;;;;;16.93;55.35;96841.60;115358;1199;36557;-90
2021/10/20 08:23:57;;;;;;;3.90;2.60;;;;;;;17.10;55.42;96843.11;115408;1199;27084;-89
2021/10/20 08:26:26;;;;;;;3.80;2.20;;;;;;;17.23;55.32;96841.77;115357;1192;27431;-90
2021/10/20 08:28:54;;;;;;;4.00;2.40;;;;;;;17.31;55.38;96832.45;115436;1193;26646;-88
2021/10/20 08:31:22;;;;;;;3.00;2.30;;;;;;;17.35;54.78;96812.95;115350;1199;35148;-89
2021/10/20 08:33:50;;;;;;;4.10;2.30;;;;;;;17.28;54.93;96821.83;115425;1199;28759;-90
2021/10/20 08:36:18;;;;;;;3.20;2.50;;;;;;;17.31;55.47;96829.73;115370;1199;24856;-88
2021/10/20 08:38:46;;;;;;;3.00;2.00;;;;;;;17.33;55.03;96836.94;115447;1192;25059;-89
2021/10/20 08:41:15;;;;;;;3.60;2.10;;;;;;;17.24;55.14;96842.10;115422;1199;26997;-90
2021/10/20 08:43:43;;;;;;;4.10;2.50;;;;;;;17.20;55.25;96830.23;115463;1198;26627;-90
2021/10/20 08:46:11;;;;;;;2.60;1.90;;;;;;;17.16;55.57;96843.14;115412;1194;27502;-89
2021/10/20 08:48:42;;;;;;;3.00;2.30;;;;;;;17.15;55.53;96820.07;115418;1199;30006;-89
2021/10/20 08:51:13;;;;;;;3.30;2.40;;;;;;;17.16;56.09;96818.48;115409;1198;27825;-88
2021/10/20 08:53:42;;;;;;;4.10;2.00;;;;;;;17.25;56.31;96826.46;115370;1199;28905;-88
2021/10/20 08:56:13;;;;;;;3.90;2.40;;;;;;;17.35;56.28;96825.67;115349;1199;30141;-89
2021/10/20 08:58:42;;;;;;;3.80;1.90;;;;;;;17.39;56.15;96822.86;115410;1192;27425;-91
2021/10/20 09:01:10;;;;;;;5.20;2.50;;;;;;;17.41;56.00;96827.25;115416;1192;27980;-88
2021/10/20 09:03:38;;;;;;;5.30;3.00;;;;;;;17.37;55.68;96825.73;115492;1192;28103;-89
2021/10/20 09:06:07;;;;;;;4.00;2.50;;;;;;;17.39;56.01;96824.91;115553;1199;28761;-90
2021/10/20 09:08:42;;;;;;;3.30;2.20;;;;;;;17.44;55.97;96821.47;115495;1198;27179;-90
2021/10/20 09:11:32;;;;;;;2.80;2.40;;;;;;;17.45;55.99;96819.14;115399;1192;26686;-88
2021/10/20 09:14:03;;;;;;;5.30;2.60;;;;;;;17.46;55.99;96814.42;115433;1199;28757;-90
2021/10/20 09:16:34;;;;;;;3.50;2.30;;;;;;;17.47;56.23;96815.50;115385;1199;26431;-89
2021/10/20 09:19:12;;;;;;;3.60;2.40;;;;;;;17.51;56.10;96808.39;115468;1198;28792;-88
2021/10/20 09:21:52;;;;;;;3.90;2.40;;;;;;;17.55;55.94;96809.98;115429;1192;28138;-88
2021/10/20 09:24:20;;;;;;;4.10;1.90;;;;;;;17.61;55.74;96803.27;115388;1199;27850;-89
2021/10/20 09:26:51;;;;;;;4.20;2.30;;;;;;;17.66;55.70;96801.52;115398;1199;28100;-91
2021/10/20 09:29:22;;;;;;;3.10;2.20;;;;;;;17.74;55.83;96791.59;115334;1193;25965;-87
2021/10/20 09:31:51;;;;;;;2.80;2.10;;;;;;;17.78;55.77;96786.19;115336;1194;28214;-89
2021/10/20 09:34:19;;;;;;;3.80;2.00;;;;;;;17.81;55.57;96780.69;115310;1199;26007;-90
2021/10/20 09:36:51;;;;;;;2.60;2.00;;;;;;;17.81;55.66;96785.39;115419;1199;25368;-89
2021/10/20 09:39:19;;;;;;;3.30;2.20;;;;;;;17.86;55.96;96779.13;115427;1199;26166;-90
2021/10/20 09:41:53;;;;;;;3.90;2.30;;;;;;;17.96;56.11;96775.94;115413;1199;40604;-89
2021/10/20 09:44:22;;;;;;;3.90;2.30;;;;;;;17.98;55.71;96770.90;115414;1198;28629;-89
2021/10/20 09:46:50;;;;;;;5.00;2.70;;;;;;;17.99;55.73;96774.75;115319;1200;27152;-90
2021/10/20 09:49:25;;;;;;;5.80;2.40;;;;;;;18.01;55.77;96772.80;115409;1184;27153;-89
2021/10/20 09:51:58;;;;;;;5.30;2.70;;;;;;;18.01;55.65;96773.79;115446;1192;25803;-89
2021/10/20 09:54:28;;;;;;;4.70;2.10;;;;;;;18.01;55.49;96770.36;115464;1198;25704;-89
2021/10/20 09:56:58;;;;;;;5.20;2.10;;;;;;;18.02;55.30;96766.07;115423;1199;27070;-88
2021/10/20 09:59:29;;;;;;;3.00;1.70;;;;;;;18.02;55.42;96760.43;115457;1199;26945;-89
2021/10/20 10:01:58;;;;;;;3.00;1.80;;;;;;;18.03;55.23;96769.27;115425;1199;28228;-89
2021/10/20 10:04:26;;;;;;;4.90;2.60;;;;;;;18.01;55.29;96768.75;115458;1199;30883;-88
2021/10/20 10:06:54;;;;;;;3.40;2.30;;;;;;;18.01;55.63;96775.33;115404;1199;28706;-89
2021/10/20 10:09:22;;;;;;;3.90;2.20;;;;;;;18.03;55.47;96769.20;115405;1192;26595;-89
2021/10/20 10:11:52;;;;;;;5.10;2.60;;;;;;;18.04;55.34;96760.20;115385;1199;28057;-89
2021/10/20 10:14:25;;;;;;;2.70;2.20;;;;;;;18.06;55.43;96754.29;115407;1199;25922;-90
2021/10/20 10:16:59;;;;;;;3.70;1.90;;;;;;;18.05;55.14;96745.45;115362;1199;31194;-89
2021/10/20 10:19:30;;;;;;;3.90;1.80;;;;;;;18.03;54.94;96750.89;115423;1199;26153;-90
2021/10/20 10:21:59;;;;;;;3.00;1.70;;;;;;;18.03;54.89;96749.82;115409;1192;27529;-88
2021/10/20 10:24:35;;;;;;;3.20;1.90;;;;;;;18.01;54.39;96739.27;115393;1199;26418;-88
2021/10/20 10:27:06;;;;;;;2.90;1.70;;;;;;;18.03;54.19;96740.60;115388;1199;27437;-89
2021/10/20 10:29:45;;;;;;;2.80;1.70;;;;;;;18.08;53.90;96739.81;115469;1199;26180;-88
2021/10/20 10:32:14;;;;;;;1.90;1.50;;;;;;;18.13;53.25;96730.47;115406;1199;25490;-89
2021/10/20 10:34:47;;;;;;;4.60;2.20;;;;;;;18.13;53.02;96729.02;115425;1198;26204;-88
2021/10/20 10:37:27;;;;;;;5.20;2.60;;;;;;;18.13;52.71;96728.33;115431;1184;28477;-89
2021/10/20 10:39:55;;;;;;;4.40;1.60;;;;;;;18.08;51.26;96715.81;115403;1199;27341;-89
2021/10/20 10:42:32;;;;;;;5.70;2.10;;;;;;;18.03;50.92;96710.24;115424;1199;25410;-88
2021/10/20 10:45:12;;;;;;;2.40;1.60;;;;;;;18.10;51.31;96709.06;115405;1192;30632;-89
2021/10/20 10:47:58;;;;;;;2.10;1.70;;;;;;;18.25;50.88;96703.28;115386;1192;27578;-89
2021/10/20 10:50:41;;;;;;;2.30;1.70;;;;;;;18.32;49.22;96679.77;115325;1192;27372;-89
2021/10/20 10:53:10;;;;;;;6.00;1.50;;;;;;;18.33;49.32;96683.89;115403;1192;28191;-89
2021/10/20 10:55:38;;;;;;;2.00;1.40;;;;;;;18.31;48.34;96679.23;115441;1192;24759;-90
2021/10/20 10:58:17;;;;;;;3.20;1.60;;;;;;;18.33;48.23;96677.39;115440;1199;31113;-89
2021/10/20 11:00:48;;;;;;;2.70;1.70;;;;;;;18.44;47.71;96660.77;115413;1199;26153;-89
2021/10/20 11:03:21;;;;;;;2.70;1.60;;;;;;;18.59;47.18;96665.36;115488;1199;26536;-90
2021/10/20 11:05:53;;;;;;;2.80;1.50;;;;;;;18.68;46.90;96663.66;115456;1199;26593;-89
2021/10/20 11:08:22;;;;;;;3.40;1.90;;;;;;;18.76;46.84;96666.80;115366;1199;27770;-88
2021/10/20 11:10:51;;;;;;;4.60;1.30;;;;;;;18.84;46.36;96663.52;115360;1199;29436;-89
2021/10/20 11:13:20;;;;;;;2.60;1.60;;;;;;;18.86;45.82;96654.57;115424;1198;26548;-89
2021/10/20 11:15:49;;;;;;;2.40;1.40;;;;;;;18.86;45.44;96647.97;115383;1197;26065;-90
2021/10/20 11:18:20;;;;;;;3.80;1.70;;;;;;;18.88;45.78;96648.11;115403;1199;27868;-89
2021/10/20 11:20:48;;;;;;;3.30;1.90;;;;;;;18.94;45.57;96644.94;115432;1199;27127;-89
2021/10/20 11:23:19;;;;;;;2.70;1.60;;;;;;;19.02;45.06;96642.89;115463;1199;27311;-88
2021/10/20 11:25:48;;;;;;;2.40;1.60;;;;;;;19.07;45.09;96643.59;115276;1199;28173;-88
2021/10/20 11:28:17;;;;;;;2.40;1.70;;;;;;;19.10;45.04;96628.59;115404;1199;35755;-90
2021/10/20 11:30:46;;;;;;;3.00;1.50;;;;;;;19.15;44.48;96631.91;115360;1199;30180;-89
2021/10/20 11:33:17;;;;;;;2.20;1.50;;;;;;;19.18;44.45;96626.25;115470;1192;27483;-89
2021/10/20 11:35:47;;;;;;;2.60;1.50;;;;;;;19.27;44.63;96632.45;115446;1199;26818;-89